Time;durP1;ratioP1;P1;durP2;ratioP2;P2;SDS_P1;SDS_P2;PMS_P1;PMS_P2;Temp;Humidity;BMP_temperature;BMP_pressure;BME280_temperature;BME280_humidity;BME280_pressure;Samples;Min_cycle;Max_cycle;Signal;HPM_P1;HPM_P2
2023/05/28 00:00:03;;;;;;;;;12.00;8.33;;;;;;;;6372234;22;45272;-74
2023/05/28 00:02:28;;;;;;;;;11.00;8.00;;;;;;;;6372907;22;46219;-74
2023/05/28 00:04:53;;;;;;;;;10.67;10.67;;;;;;;;6372439;22;45253;-73
2023/05/28 00:07:21;;;;;;;;;13.00;9.00;;;;;;;;6373458;22;45506;-74
2023/05/28 00:09:47;;;;;;;;;12.67;8.33;;;;;;;;6372196;22;45288;-74
2023/05/28 00:12:12;;;;;;;;;8.00;8.00;;;;;;;;6372667;22;45222;-74
2023/05/28 00:14:37;;;;;;;;;11.33;11.00;;;;;;;;6343084;22;45570;-74
2023/05/28 00:17:02;;;;;;;;;8.67;8.67;;;;;;;;6373179;22;45495;-74
2023/05/28 00:19:28;;;;;;;;;12.33;8.33;;;;;;;;6343103;22;45168;-74
2023/05/28 00:21:53;;;;;;;;;11.33;10.00;;;;;;;;6372819;22;46106;-73
2023/05/28 00:24:18;;;;;;;;;14.33;7.67;;;;;;;;6372656;22;45368;-74
2023/05/28 00:26:43;;;;;;;;;13.33;12.33;;;;;;;;6371694;22;45172;-74
2023/05/28 00:29:08;;;;;;;;;11.00;10.00;;;;;;;;6372550;22;45230;-74
2023/05/28 00:31:34;;;;;;;;;15.67;11.00;;;;;;;;6372679;22;45988;-73
2023/05/28 00:33:59;;;;;;;;;15.00;10.67;;;;;;;;6373099;22;45177;-72
2023/05/28 00:36:24;;;;;;;;;11.67;10.00;;;;;;;;6372291;22;45435;-73
2023/05/28 00:38:50;;;;;;;;;13.00;10.00;;;;;;;;6372840;22;45135;-73
2023/05/28 00:41:22;;;;;;;;;13.67;8.67;;;;;;;;6372311;22;45210;-73
2023/05/28 00:43:48;;;;;;;;;10.67;9.00;;;;;;;;6372381;22;45163;-73
2023/05/28 00:46:17;;;;;;;;;11.00;11.00;;;;;;;;6371160;22;45234;-72
2023/05/28 00:48:43;;;;;;;;;11.33;9.67;;;;;;;;6372481;22;45346;-73
2023/05/28 00:51:08;;;;;;;;;12.67;10.00;;;;;;;;6372071;22;45243;-73
2023/05/28 00:53:34;;;;;;;;;11.33;10.00;;;;;;;;6372715;22;45236;-73
2023/05/28 00:55:59;;;;;;;;;10.33;9.00;;;;;;;;6343932;22;45371;-73
2023/05/28 00:58:25;;;;;;;;;12.00;11.33;;;;;;;;6372582;22;45432;-73
2023/05/28 01:00:50;;;;;;;;;13.00;12.33;;;;;;;;6372337;22;46210;-74
2023/05/28 01:03:16;;;;;;;;;8.00;8.00;;;;;;;;6372620;22;45282;-73
2023/05/28 01:05:42;;;;;;;;;12.00;10.67;;;;;;;;6343846;22;45291;-72
2023/05/28 01:08:07;;;;;;;;;14.67;9.00;;;;;;;;6372465;22;45483;-71
2023/05/28 01:10:33;;;;;;;;;10.00;10.00;;;;;;;;6343920;22;45200;-71
2023/05/28 01:13:00;;;;;;;;;14.33;9.33;;;;;;;;6372640;22;45251;-71
2023/05/28 01:15:25;;;;;;;;;16.00;12.67;;;;;;;;6372031;22;45228;-71
2023/05/28 01:17:55;;;;;;;;;15.33;12.33;;;;;;;;6372365;22;45175;-72
2023/05/28 01:20:20;;;;;;;;;14.33;11.00;;;;;;;;6343429;22;45240;-71
2023/05/28 01:22:46;;;;;;;;;15.67;12.67;;;;;;;;6342651;22;45219;-74
2023/05/28 01:25:12;;;;;;;;;13.67;11.33;;;;;;;;6372637;22;45227;-73
2023/05/28 01:27:39;;;;;;;;;13.33;10.67;;;;;;;;6372563;22;45100;-74
2023/05/28 01:30:07;;;;;;;;;11.67;7.33;;;;;;;;6371875;22;45227;-73
2023/05/28 01:32:32;;;;;;;;;13.67;9.33;;;;;;;;6372295;22;45263;-73
2023/05/28 01:34:57;;;;;;;;;13.00;11.33;;;;;;;;6372321;22;45207;-74
2023/05/28 01:37:24;;;;;;;;;11.67;9.00;;;;;;;;6372791;22;45257;-73
2023/05/28 01:39:50;;;;;;;;;15.67;12.00;;;;;;;;6370888;22;45362;-73
2023/05/28 01:42:16;;;;;;;;;13.00;12.67;;;;;;;;6371984;22;45214;-73
2023/05/28 01:44:42;;;;;;;;;17.33;13.00;;;;;;;;6342572;22;45247;-74
2023/05/28 01:47:07;;;;;;;;;13.67;12.67;;;;;;;;6371642;22;45352;-73
2023/05/28 01:49:33;;;;;;;;;14.33;12.33;;;;;;;;6372060;22;45970;-74
2023/05/28 01:51:58;;;;;;;;;12.67;12.00;;;;;;;;6372214;22;45227;-73
2023/05/28 01:54:23;;;;;;;;;12.67;10.67;;;;;;;;6372212;22;44711;-73
2023/05/28 01:56:48;;;;;;;;;14.67;10.67;;;;;;;;6372163;22;45144;-73
2023/05/28 01:59:14;;;;;;;;;13.00;13.00;;;;;;;;6343345;22;48079;-74
2023/05/28 02:01:39;;;;;;;;;17.00;15.33;;;;;;;;6372135;22;45148;-74
2023/05/28 02:04:04;;;;;;;;;16.00;14.67;;;;;;;;6372596;22;45230;-73
2023/05/28 02:06:30;;;;;;;;;16.00;14.00;;;;;;;;6371461;22;45147;-72
2023/05/28 02:08:56;;;;;;;;;14.67;14.00;;;;;;;;6371783;22;46080;-72
2023/05/28 02:11:25;;;;;;;;;18.67;13.67;;;;;;;;6371063;22;45253;-72
2023/05/28 02:13:52;;;;;;;;;13.67;13.00;;;;;;;;6371887;22;45196;-72
2023/05/28 02:16:17;;;;;;;;;17.67;15.00;;;;;;;;6371304;22;45175;-72
2023/05/28 02:18:43;;;;;;;;;20.67;12.00;;;;;;;;6371911;22;45329;-72
2023/05/28 02:21:08;;;;;;;;;16.33;11.33;;;;;;;;6371693;22;45469;-72
2023/05/28 02:23:33;;;;;;;;;15.00;13.67;;;;;;;;6372075;22;45207;-72
2023/05/28 02:25:58;;;;;;;;;14.00;13.67;;;;;;;;6371643;22;45210;-72
2023/05/28 02:28:23;;;;;;;;;17.00;14.00;;;;;;;;6342898;22;45966;-72
2023/05/28 02:30:49;;;;;;;;;17.00;12.00;;;;;;;;6371403;22;45159;-72
2023/05/28 02:33:14;;;;;;;;;20.50;13.00;;;;;;;;6372650;22;45207;-72
2023/05/28 02:35:39;;;;;;;;;15.00;13.33;;;;;;;;6373111;22;45202;-72
2023/05/28 02:38:05;;;;;;;;;13.67;12.67;;;;;;;;6373169;22;45198;-73
2023/05/28 02:40:31;;;;;;;;;18.00;15.67;;;;;;;;6371102;22;45157;-73
2023/05/28 02:42:56;;;;;;;;;12.00;12.00;;;;;;;;6373318;22;45088;-72
2023/05/28 02:45:21;;;;;;;;;15.33;15.33;;;;;;;;6372523;22;45550;-72
2023/05/28 02:47:46;;;;;;;;;17.00;15.67;;;;;;;;6344368;22;47053;-72
2023/05/28 02:50:11;;;;;;;;;17.00;13.33;;;;;;;;6372913;22;45211;-72
2023/05/28 02:52:37;;;;;;;;;17.33;14.00;;;;;;;;6373344;22;45180;-72
2023/05/28 02:55:02;;;;;;;;;15.00;13.33;;;;;;;;6372846;22;45295;-72
2023/05/28 02:57:27;;;;;;;;;17.33;14.67;;;;;;;;6373192;22;45374;-72
2023/05/28 02:59:52;;;;;;;;;19.33;16.00;;;;;;;;6344073;22;45287;-72
2023/05/28 03:02:17;;;;;;;;;15.33;13.67;;;;;;;;6373488;22;45355;-73
2023/05/28 03:04:43;;;;;;;;;18.00;15.00;;;;;;;;6373024;22;45479;-72
2023/05/28 03:07:08;;;;;;;;;18.00;15.00;;;;;;;;6372877;22;45265;-72
2023/05/28 03:09:33;;;;;;;;;15.33;14.00;;;;;;;;6373088;22;45218;-72
2023/05/28 03:11:58;;;;;;;;;15.33;12.00;;;;;;;;6373242;22;45260;-72
2023/05/28 03:14:23;;;;;;;;;16.00;13.67;;;;;;;;6372481;22;45432;-72
2023/05/28 03:16:48;;;;;;;;;24.67;17.67;;;;;;;;6372852;22;45166;-72
2023/05/28 03:19:14;;;;;;;;;20.00;17.67;;;;;;;;6344404;22;45979;-73
2023/05/28 03:21:40;;;;;;;;;21.00;17.00;;;;;;;;6373377;22;45258;-72
2023/05/28 03:24:05;;;;;;;;;21.33;17.33;;;;;;;;6373036;22;45207;-72
2023/05/28 03:26:31;;;;;;;;;19.33;18.00;;;;;;;;6372689;22;46450;-72
2023/05/28 03:28:56;;;;;;;;;24.00;19.00;;;;;;;;6372964;22;45268;-72
2023/05/28 03:31:25;;;;;;;;;19.00;16.33;;;;;;;;6372808;22;45289;-72
2023/05/28 03:33:50;;;;;;;;;19.00;17.00;;;;;;;;6372711;22;45343;-72
2023/05/28 03:36:17;;;;;;;;;19.50;17.25;;;;;;;;6372531;22;45213;-72
2023/05/28 03:38:42;;;;;;;;;22.25;19.25;;;;;;;;6373222;22;45268;-72
2023/05/28 03:41:07;;;;;;;;;20.67;18.67;;;;;;;;6372610;22;45384;-72
2023/05/28 03:43:33;;;;;;;;;20.00;16.33;;;;;;;;6372775;22;45167;-72
2023/05/28 03:45:58;;;;;;;;;19.67;17.67;;;;;;;;6371244;22;45305;-72
2023/05/28 03:48:24;;;;;;;;;21.67;19.67;;;;;;;;6343814;22;45377;-72
2023/05/28 03:50:49;;;;;;;;;20.75;17.75;;;;;;;;6372811;22;45286;-72
2023/05/28 03:53:14;;;;;;;;;19.33;17.33;;;;;;;;6372862;22;45235;-72
2023/05/28 03:55:39;;;;;;;;;22.00;17.50;;;;;;;;6372498;22;45416;-72
2023/05/28 03:58:05;;;;;;;;;25.75;19.00;;;;;;;;6372976;22;45254;-72
2023/05/28 04:00:30;;;;;;;;;22.50;19.00;;;;;;;;6372330;22;45214;-73
2023/05/28 04:02:55;;;;;;;;;17.50;16.00;;;;;;;;6372848;22;45195;-73
2023/05/28 04:05:20;;;;;;;;;20.50;17.50;;;;;;;;6372544;22;45398;-72
2023/05/28 04:07:45;;;;;;;;;19.75;17.25;;;;;;;;6372970;22;45293;-72
2023/05/28 04:10:11;;;;;;;;;21.75;18.00;;;;;;;;6343508;22;45324;-72
2023/05/28 04:12:36;;;;;;;;;17.25;17.25;;;;;;;;6372738;22;45232;-72
2023/05/28 04:15:02;;;;;;;;;25.25;19.25;;;;;;;;6372335;22;45280;-72
2023/05/28 04:17:28;;;;;;;;;22.00;19.50;;;;;;;;6372799;22;45157;-73
2023/05/28 04:19:53;;;;;;;;;20.00;17.75;;;;;;;;6372643;22;45281;-72
2023/05/28 04:22:18;;;;;;;;;20.50;14.75;;;;;;;;6372874;22;45233;-72
2023/05/28 04:24:44;;;;;;;;;24.75;19.00;;;;;;;;6372537;22;45313;-72
2023/05/28 04:27:09;;;;;;;;;21.25;20.00;;;;;;;;6372763;22;45225;-72
2023/05/28 04:29:34;;;;;;;;;20.75;18.50;;;;;;;;6372581;22;45152;-72
2023/05/28 04:32:00;;;;;;;;;22.25;18.00;;;;;;;;6343461;22;45599;-72
2023/05/28 04:34:25;;;;;;;;;23.75;20.25;;;;;;;;6372581;22;45777;-72
2023/05/28 04:36:56;;;;;;;;;23.00;20.25;;;;;;;;6372573;22;45128;-72
2023/05/28 04:39:22;;;;;;;;;20.25;19.00;;;;;;;;6372879;22;45278;-72
2023/05/28 04:41:47;;;;;;;;;21.50;19.00;;;;;;;;6372918;22;45308;-72
2023/05/28 04:44:15;;;;;;;;;22.00;20.00;;;;;;;;6372285;22;45722;-72
2023/05/28 04:46:40;;;;;;;;;18.50;15.75;;;;;;;;6372314;22;45222;-72
2023/05/28 04:49:05;;;;;;;;;15.00;13.50;;;;;;;;6372866;22;45187;-72
2023/05/28 04:51:31;;;;;;;;;22.25;19.50;;;;;;;;6372256;22;45122;-72
2023/05/28 04:53:56;;;;;;;;;19.75;15.50;;;;;;;;6372956;22;45829;-72
2023/05/28 04:56:22;;;;;;;;;18.50;17.00;;;;;;;;6372402;22;45155;-72
2023/05/28 04:58:47;;;;;;;;;22.75;19.25;;;;;;;;6344181;22;45253;-72
2023/05/28 05:01:14;;;;;;;;;19.75;19.00;;;;;;;;6372280;22;45270;-72
2023/05/28 05:03:40;;;;;;;;;22.75;20.25;;;;;;;;6372043;22;45205;-72
2023/05/28 05:06:06;;;;;;;;;24.25;20.00;;;;;;;;6372165;22;45168;-72
2023/05/28 05:08:32;;;;;;;;;20.00;17.00;;;;;;;;6344247;22;45196;-72
2023/05/28 05:10:57;;;;;;;;;18.00;16.67;;;;;;;;6343418;22;46758;-72
2023/05/28 05:13:23;;;;;;;;;19.00;16.25;;;;;;;;6372369;22;46016;-73
2023/05/28 05:15:48;;;;;;;;;18.25;18.25;;;;;;;;6372197;22;45215;-72
2023/05/28 05:18:13;;;;;;;;;20.25;18.00;;;;;;;;6372996;22;45319;-73
2023/05/28 05:20:38;;;;;;;;;20.67;17.00;;;;;;;;6372373;22;45187;-73
2023/05/28 05:23:04;;;;;;;;;18.33;16.33;;;;;;;;6372514;22;45316;-73
2023/05/28 05:25:29;;;;;;;;;22.50;19.75;;;;;;;;6372188;22;45223;-73
2023/05/28 05:27:54;;;;;;;;;26.25;21.75;;;;;;;;6372572;22;45585;-73
2023/05/28 05:30:19;;;;;;;;;17.75;15.25;;;;;;;;6371832;22;45208;-72
2023/05/28 05:32:44;;;;;;;;;27.50;18.25;;;;;;;;6372240;22;45225;-73
2023/05/28 05:35:10;;;;;;;;;20.00;18.33;;;;;;;;6372149;22;45166;-73
2023/05/28 05:37:35;;;;;;;;;21.50;20.00;;;;;;;;6372535;22;45243;-73
2023/05/28 05:40:01;;;;;;;;;27.75;20.50;;;;;;;;6343436;22;46990;-73
2023/05/28 05:42:26;;;;;;;;;21.75;20.25;;;;;;;;6372097;22;45954;-72
2023/05/28 05:44:52;;;;;;;;;24.25;18.00;;;;;;;;6342206;22;45243;-73
2023/05/28 05:47:17;;;;;;;;;25.75;21.50;;;;;;;;6371826;22;45270;-73
2023/05/28 05:49:42;;;;;;;;;23.25;17.50;;;;;;;;6372173;22;45087;-73
2023/05/28 05:52:07;;;;;;;;;25.67;19.67;;;;;;;;6371940;22;45322;-72
2023/05/28 05:54:33;;;;;;;;;25.25;22.50;;;;;;;;6343165;22;45234;-72
2023/05/28 05:56:59;;;;;;;;;18.67;18.33;;;;;;;;6372378;22;45253;-72
2023/05/28 05:59:24;;;;;;;;;23.25;19.25;;;;;;;;6371136;22;45310;-72
2023/05/28 06:01:49;;;;;;;;;28.50;23.00;;;;;;;;6371710;22;45269;-73
2023/05/28 06:04:14;;;;;;;;;23.67;21.00;;;;;;;;6371552;22;45203;-72
2023/05/28 06:06:40;;;;;;;;;25.50;22.50;;;;;;;;6371961;22;45233;-73
2023/05/28 06:09:06;;;;;;;;;25.33;22.00;;;;;;;;6373136;22;45475;-73
2023/05/28 06:11:31;;;;;;;;;26.67;21.67;;;;;;;;6344276;22;47347;-73
2023/05/28 06:13:56;;;;;;;;;22.67;18.67;;;;;;;;6373123;22;45168;-72
2023/05/28 06:16:22;;;;;;;;;22.00;21.00;;;;;;;;6373003;22;45250;-73
2023/05/28 06:18:47;;;;;;;;;24.67;18.67;;;;;;;;6373464;22;45304;-74
2023/05/28 06:21:12;;;;;;;;;19.00;17.67;;;;;;;;6344960;22;48099;-72
2023/05/28 06:23:37;;;;;;;;;21.00;18.00;;;;;;;;6373181;22;45148;-73
2023/05/28 06:26:03;;;;;;;;;25.00;17.67;;;;;;;;6373278;22;45456;-70
2023/05/28 06:28:28;;;;;;;;;19.67;18.33;;;;;;;;6373102;22;45357;-72
2023/05/28 06:30:53;;;;;;;;;20.67;18.67;;;;;;;;6343529;22;48123;-71
2023/05/28 06:33:19;;;;;;;;;26.00;21.00;;;;;;;;6342038;22;45238;-71
2023/05/28 06:35:45;;;;;;;;;20.33;19.33;;;;;;;;6344292;22;45415;-72
2023/05/28 06:38:10;;;;;;;;;18.00;17.00;;;;;;;;6373107;22;45409;-71
2023/05/28 06:40:35;;;;;;;;;23.33;21.00;;;;;;;;6372445;22;45136;-71
2023/05/28 06:43:01;;;;;;;;;16.33;14.33;;;;;;;;6372513;22;45113;-70
2023/05/28 06:45:26;;;;;;;;;21.00;16.67;;;;;;;;6371972;22;45401;-70
2023/05/28 06:47:51;;;;;;;;;20.00;18.33;;;;;;;;6373254;22;45196;-71
2023/05/28 06:50:17;;;;;;;;;18.67;18.33;;;;;;;;6343618;22;46960;-71
2023/05/28 06:52:42;;;;;;;;;19.67;19.00;;;;;;;;6372495;22;45178;-71
2023/05/28 06:55:08;;;;;;;;;24.33;18.67;;;;;;;;6372578;22;45277;-71
2023/05/28 06:57:34;;;;;;;;;18.33;16.67;;;;;;;;6372792;22;45188;-74
2023/05/28 06:59:59;;;;;;;;;19.00;16.33;;;;;;;;6372034;22;45249;-73
2023/05/28 07:02:25;;;;;;;;;12.33;10.33;;;;;;;;6372989;22;45294;-73
2023/05/28 07:04:50;;;;;;;;;18.67;16.67;;;;;;;;6372736;22;45351;-71
2023/05/28 07:07:16;;;;;;;;;17.67;17.67;;;;;;;;6372868;22;45356;-71
2023/05/28 07:09:41;;;;;;;;;15.33;15.00;;;;;;;;6372051;22;46490;-71
2023/05/28 07:12:06;;;;;;;;;17.33;15.67;;;;;;;;6373155;22;45337;-71
2023/05/28 07:14:32;;;;;;;;;21.00;15.67;;;;;;;;6372322;22;45247;-71
2023/05/28 07:16:57;;;;;;;;;20.33;14.67;;;;;;;;6342961;22;45590;-71
2023/05/28 07:19:22;;;;;;;;;15.67;13.00;;;;;;;;6372085;22;45224;-71
2023/05/28 07:21:47;;;;;;;;;14.00;11.67;;;;;;;;6372975;22;45231;-70
2023/05/28 07:24:12;;;;;;;;;16.33;15.00;;;;;;;;6373164;22;45176;-71
2023/05/28 07:26:38;;;;;;;;;23.00;19.67;;;;;;;;6368904;22;45199;-71
2023/05/28 07:29:03;;;;;;;;;22.33;17.33;;;;;;;;6365935;22;45493;-71
2023/05/28 07:31:29;;;;;;;;;18.33;16.67;;;;;;;;6371990;22;45154;-71
2023/05/28 07:33:54;;;;;;;;;19.00;16.67;;;;;;;;6343881;22;45414;-71
2023/05/28 07:36:20;;;;;;;;;15.67;13.67;;;;;;;;6371704;22;45203;-71
2023/05/28 07:38:45;;;;;;;;;17.00;13.67;;;;;;;;6343691;22;46134;-71
2023/05/28 07:41:10;;;;;;;;;16.33;14.00;;;;;;;;6372449;22;45203;-70
2023/05/28 07:43:35;;;;;;;;;15.67;14.00;;;;;;;;6372526;22;45508;-71
2023/05/28 07:46:00;;;;;;;;;17.67;16.33;;;;;;;;6371709;22;45214;-71
2023/05/28 07:48:26;;;;;;;;;17.00;12.33;;;;;;;;6372950;22;45216;-72
2023/05/28 07:50:51;;;;;;;;;12.67;12.33;;;;;;;;6372539;22;45244;-71
2023/05/28 07:53:17;;;;;;;;;13.33;12.00;;;;;;;;6372826;22;45145;-71
2023/05/28 07:55:42;;;;;;;;;14.33;11.00;;;;;;;;6372437;22;45164;-71
2023/05/28 07:58:07;;;;;;;;;14.67;12.00;;;;;;;;6372462;22;45325;-71
2023/05/28 08:00:33;;;;;;;;;14.33;11.00;;;;;;;;6372427;22;45228;-70
2023/05/28 08:02:58;;;;;;;;;17.75;12.50;;;;;;;;6372442;22;45322;-70
2023/05/28 08:05:24;;;;;;;;;18.00;15.00;;;;;;;;6372292;22;45241;-74
2023/05/28 08:07:49;;;;;;;;;14.25;11.50;;;;;;;;6372631;22;45246;-74
2023/05/28 08:10:14;;;;;;;;;12.00;10.75;;;;;;;;6372594;22;45224;-73
2023/05/28 08:12:39;;;;;;;;;17.75;13.25;;;;;;;;6343663;22;45337;-74
2023/05/28 08:15:05;;;;;;;;;17.00;13.00;;;;;;;;6371854;22;45254;-74
2023/05/28 08:17:30;;;;;;;;;14.75;12.75;;;;;;;;6372389;22;45921;-74
2023/05/28 08:19:56;;;;;;;;;15.50;11.50;;;;;;;;6372121;22;45277;-73
2023/05/28 08:22:21;;;;;;;;;16.25;14.00;;;;;;;;6373035;22;45299;-74
2023/05/28 08:24:46;;;;;;;;;16.25;12.00;;;;;;;;6372309;22;45423;-74
2023/05/28 08:27:11;;;;;;;;;14.00;13.00;;;;;;;;6373822;22;45255;-74
2023/05/28 08:29:36;;;;;;;;;12.25;12.00;;;;;;;;6373040;22;45278;-73
2023/05/28 08:32:02;;;;;;;;;13.50;10.00;;;;;;;;6372713;22;45222;-74
2023/05/28 08:34:27;;;;;;;;;15.75;11.50;;;;;;;;6372539;22;45259;-74
2023/05/28 08:36:52;;;;;;;;;11.50;9.00;;;;;;;;6372626;22;45428;-74
2023/05/28 08:39:18;;;;;;;;;16.75;11.75;;;;;;;;6372093;22;45257;-75
2023/05/28 08:41:43;;;;;;;;;11.50;9.75;;;;;;;;6372551;22;45253;-75
2023/05/28 08:44:09;;;;;;;;;12.25;11.00;;;;;;;;6342724;22;45176;-75
2023/05/28 08:46:35;;;;;;;;;15.25;11.25;;;;;;;;6371048;22;45981;-76
2023/05/28 08:49:00;;;;;;;;;13.50;11.00;;;;;;;;6370834;22;45257;-75
2023/05/28 08:51:27;;;;;;;;;13.25;12.00;;;;;;;;6372191;22;45135;-76
2023/05/28 08:53:52;;;;;;;;;13.25;10.75;;;;;;;;6372104;22;45151;-75
2023/05/28 08:56:18;;;;;;;;;11.50;11.25;;;;;;;;6371779;22;46823;-76
2023/05/28 08:58:44;;;;;;;;;12.75;12.00;;;;;;;;6372535;22;45239;-76
2023/05/28 09:01:09;;;;;;;;;9.75;8.00;;;;;;;;6372211;22;45225;-76
2023/05/28 09:03:35;;;;;;;;;9.75;6.50;;;;;;;;6372094;22;45277;-76
2023/05/28 09:06:01;;;;;;;;;9.00;8.00;;;;;;;;6372067;22;45269;-75
2023/05/28 09:08:26;;;;;;;;;11.00;10.50;;;;;;;;6372008;22;45380;-76
2023/05/28 09:10:51;;;;;;;;;10.75;9.00;;;;;;;;6372913;22;45241;-76
2023/05/28 09:13:20;;;;;;;;;11.75;10.75;;;;;;;;6373798;22;45500;-77
2023/05/28 09:15:50;;;;;;;;;12.25;12.00;;;;;;;;6374776;22;45342;-76
2023/05/28 09:18:18;;;;;;;;;11.60;10.20;;;;;;;;6346074;22;45282;-77
2023/05/28 09:20:44;;;;;;;;;9.50;8.75;;;;;;;;6375011;22;45211;-77
2023/05/28 09:23:09;;;;;;;;;9.75;6.50;;;;;;;;6372304;22;45174;-77
2023/05/28 09:25:36;;;;;;;;;12.00;10.75;;;;;;;;6371440;22;46157;-77
2023/05/28 09:28:02;;;;;;;;;13.20;9.80;;;;;;;;6372197;22;45261;-77
2023/05/28 09:30:29;;;;;;;;;9.25;9.25;;;;;;;;6372452;22;45124;-76
2023/05/28 09:33:01;;;;;;;;;11.25;9.00;;;;;;;;6372237;22;45326;-76
2023/05/28 09:35:26;;;;;;;;;9.75;9.75;;;;;;;;6371841;22;45233;-76
2023/05/28 09:38:08;;;;;;;;;12.00;11.00;;;;;;;;6372502;22;45235;-76
2023/05/28 09:40:37;;;;;;;;;9.60;9.60;;;;;;;;6371851;22;45209;-76
2023/05/28 09:43:04;;;;;;;;;10.50;8.75;;;;;;;;6369883;22;45261;-76
2023/05/28 09:45:29;;;;;;;;;10.80;8.60;;;;;;;;6371020;22;46818;-76
2023/05/28 09:47:54;;;;;;;;;13.75;12.00;;;;;;;;6372196;22;45232;-76
2023/05/28 09:50:21;;;;;;;;;11.00;11.00;;;;;;;;6374646;22;45305;-75
2023/05/28 09:52:46;;;;;;;;;10.25;10.00;;;;;;;;6347751;22;45430;-76
2023/05/28 09:55:17;;;;;;;;;12.75;10.00;;;;;;;;6377445;22;45456;-76
2023/05/28 09:57:55;;;;;;;;;10.60;9.60;;;;;;;;6377295;22;45206;-75
2023/05/28 10:00:23;;;;;;;;;10.80;9.00;;;;;;;;6376860;22;45223;-75
2023/05/28 10:03:09;;;;;;;;;9.20;9.20;;;;;;;;6376709;22;45290;-75
2023/05/28 10:05:36;;;;;;;;;9.80;9.00;;;;;;;;6374544;22;45351;-77
2023/05/28 10:08:02;;;;;;;;;8.00;6.80;;;;;;;;6371863;22;45143;-76
2023/05/28 10:10:31;;;;;;;;;11.25;11.25;;;;;;;;6372141;22;45072;-76
2023/05/28 10:12:57;;;;;;;;;10.80;8.60;;;;;;;;6371766;22;45347;-76
2023/05/28 10:15:22;;;;;;;;;9.25;8.25;;;;;;;;6371684;22;46413;-75
2023/05/28 10:17:48;;;;;;;;;14.00;10.00;;;;;;;;6371974;22;45241;-76
2023/05/28 10:20:14;;;;;;;;;13.00;9.40;;;;;;;;6371751;22;45257;-77
2023/05/28 10:22:40;;;;;;;;;10.50;8.75;;;;;;;;6371760;22;45470;-76
2023/05/28 10:25:08;;;;;;;;;10.60;9.20;;;;;;;;6369792;22;45462;-75
2023/05/28 10:27:34;;;;;;;;;6.00;6.00;;;;;;;;6371541;22;45172;-76
2023/05/28 10:30:03;;;;;;;;;9.80;8.20;;;;;;;;6371249;22;45192;-77
2023/05/28 10:32:28;;;;;;;;;7.00;7.00;;;;;;;;6371261;22;45117;-76
2023/05/28 10:35:01;;;;;;;;;11.75;8.75;;;;;;;;6371756;22;45377;-76
2023/05/28 10:37:26;;;;;;;;;9.60;7.80;;;;;;;;6369943;22;45367;-76
2023/05/28 10:39:51;;;;;;;;;9.00;7.00;;;;;;;;6373350;22;45316;-76
2023/05/28 10:42:18;;;;;;;;;4.25;4.25;;;;;;;;6344651;22;45216;-77
2023/05/28 10:45:02;;;;;;;;;10.20;6.60;;;;;;;;6373593;22;45962;-77
2023/05/28 10:47:31;;;;;;;;;11.40;10.40;;;;;;;;6373381;22;45276;-77
2023/05/28 10:50:08;;;;;;;;;13.20;9.60;;;;;;;;6375155;22;45230;-77
2023/05/28 10:52:34;;;;;;;;;11.20;8.60;;;;;;;;6371696;22;45290;-77
2023/05/28 10:55:02;;;;;;;;;9.00;7.25;;;;;;;;6372151;22;46222;-77
2023/05/28 10:57:38;;;;;;;;;10.40;9.20;;;;;;;;6372635;22;45230;-76
2023/05/28 11:00:09;;;;;;;;;8.40;8.00;;;;;;;;6372715;22;45455;-76
2023/05/28 11:02:35;;;;;;;;;7.00;7.00;;;;;;;;6371670;22;45270;-77
2023/05/28 11:05:02;;;;;;;;;11.25;8.75;;;;;;;;6372683;22;45249;-76
2023/05/28 11:07:35;;;;;;;;;11.20;9.60;;;;;;;;6371644;22;45332;-77
2023/05/28 11:10:01;;;;;;;;;12.40;10.80;;;;;;;;6373031;22;45276;-77
2023/05/28 11:12:26;;;;;;;;;9.00;8.80;;;;;;;;6373122;22;45349;-75
2023/05/28 11:14:52;;;;;;;;;20.75;18.00;;;;;;;;6372306;22;45309;-77
2023/05/28 11:17:17;;;;;;;;;13.25;13.25;;;;;;;;6373179;22;45234;-77
2023/05/28 11:19:46;;;;;;;;;14.75;12.50;;;;;;;;6372986;22;45195;-75
2023/05/28 11:22:11;;;;;;;;;9.00;8.60;;;;;;;;6372721;22;45089;-77
2023/05/28 11:24:49;;;;;;;;;9.25;8.00;;;;;;;;6343526;22;48144;-77
2023/05/28 11:27:15;;;;;;;;;8.60;7.40;;;;;;;;6373619;22;45247;-74
2023/05/28 11:29:40;;;;;;;;;7.75;7.75;;;;;;;;6372517;22;45281;-75
2023/05/28 11:32:06;;;;;;;;;9.75;8.25;;;;;;;;6374097;22;45467;-76
2023/05/28 11:34:31;;;;;;;;;7.25;7.25;;;;;;;;6375172;22;45283;-77
2023/05/28 11:36:58;;;;;;;;;7.00;5.00;;;;;;;;6367969;22;45231;-76
2023/05/28 11:39:24;;;;;;;;;7.80;6.20;;;;;;;;6372343;22;45306;-76
2023/05/28 11:41:49;;;;;;;;;7.75;7.75;;;;;;;;6372133;22;45244;-76
2023/05/28 11:44:17;;;;;;;;;11.75;8.50;;;;;;;;6371989;22;45200;-77
2023/05/28 11:46:43;;;;;;;;;7.00;6.00;;;;;;;;6344034;22;45280;-76
2023/05/28 11:49:08;;;;;;;;;7.00;7.00;;;;;;;;6373262;22;45193;-76
2023/05/28 11:51:35;;;;;;;;;9.00;7.75;;;;;;;;6372532;22;45515;-76
2023/05/28 11:54:01;;;;;;;;;7.20;5.00;;;;;;;;6344404;22;47069;-76
2023/05/28 11:56:26;;;;;;;;;5.00;5.00;;;;;;;;6372104;22;45293;-76
2023/05/28 11:58:52;;;;;;;;;9.00;7.00;;;;;;;;6372092;22;45284;-75
2023/05/28 12:01:17;;;;;;;;;8.50;8.50;;;;;;;;6371480;22;45317;-78
2023/05/28 12:03:42;;;;;;;;;6.75;5.75;;;;;;;;6372548;22;45242;-77
2023/05/28 12:06:08;;;;;;;;;8.00;5.00;;;;;;;;6372273;22;45270;-76
2023/05/28 12:08:33;;;;;;;;;8.50;7.25;;;;;;;;6374701;22;45440;-76
2023/05/28 12:11:02;;;;;;;;;3.25;3.25;;;;;;;;6372961;22;45235;-77
2023/05/28 12:13:33;;;;;;;;;6.40;6.40;;;;;;;;6373287;22;45321;-76
2023/05/28 12:16:06;;;;;;;;;10.20;9.60;;;;;;;;6373357;22;45337;-76
2023/05/28 12:18:31;;;;;;;;;9.60;7.60;;;;;;;;6373025;22;45289;-77
2023/05/28 12:20:58;;;;;;;;;8.75;6.75;;;;;;;;6372288;22;45164;-77
2023/05/28 12:23:23;;;;;;;;;9.40;9.00;;;;;;;;6372545;22;45278;-77
2023/05/28 12:25:49;;;;;;;;;4.50;4.50;;;;;;;;6372515;22;45262;-76
2023/05/28 12:28:15;;;;;;;;;6.00;6.00;;;;;;;;6372577;22;45238;-76
2023/05/28 12:30:41;;;;;;;;;8.00;6.20;;;;;;;;6372108;22;45234;-75
2023/05/28 12:33:06;;;;;;;;;10.00;9.00;;;;;;;;6372451;22;45190;-76
2023/05/28 12:35:31;;;;;;;;;6.75;6.50;;;;;;;;6372453;22;45258;-76
2023/05/28 12:37:56;;;;;;;;;7.00;6.00;;;;;;;;6372824;22;45168;-75
2023/05/28 12:40:22;;;;;;;;;9.00;8.25;;;;;;;;6371912;22;45795;-76
2023/05/28 12:42:47;;;;;;;;;8.75;7.75;;;;;;;;6372546;22;46468;-76
2023/05/28 12:45:12;;;;;;;;;8.25;8.00;;;;;;;;6371718;22;45286;-74
2023/05/28 12:47:37;;;;;;;;;10.00;10.00;;;;;;;;6343954;22;45162;-75
2023/05/28 12:50:03;;;;;;;;;13.25;12.25;;;;;;;;6372547;22;45152;-76
2023/05/28 12:52:29;;;;;;;;;16.00;13.50;;;;;;;;6373553;22;45199;-75
2023/05/28 12:54:54;;;;;;;;;9.80;9.20;;;;;;;;6345045;22;45313;-76
2023/05/28 12:57:19;;;;;;;;;13.00;13.00;;;;;;;;6375968;22;45253;-75
2023/05/28 12:59:44;;;;;;;;;8.25;7.75;;;;;;;;6345520;22;45358;-75
2023/05/28 13:02:10;;;;;;;;;6.00;6.00;;;;;;;;6372397;22;46221;-75
2023/05/28 13:04:35;;;;;;;;;10.75;5.75;;;;;;;;6372317;22;45251;-77
2023/05/28 13:07:00;;;;;;;;;5.50;5.50;;;;;;;;6372507;22;45265;-76
2023/05/28 13:09:25;;;;;;;;;6.00;5.00;;;;;;;;6372167;22;45252;-76
2023/05/28 13:11:50;;;;;;;;;5.25;3.75;;;;;;;;6371667;22;46164;-76
2023/05/28 13:14:16;;;;;;;;;6.50;5.00;;;;;;;;6372222;22;45292;-76
2023/05/28 13:16:41;;;;;;;;;4.00;4.00;;;;;;;;6371612;22;45230;-75
2023/05/28 13:19:06;;;;;;;;;6.00;6.00;;;;;;;;6371745;22;45270;-77
2023/05/28 13:21:32;;;;;;;;;8.75;7.00;;;;;;;;6372016;22;45679;-76
2023/05/28 13:23:57;;;;;;;;;6.00;5.25;;;;;;;;6372235;22;45216;-76
2023/05/28 13:26:23;;;;;;;;;5.75;5.00;;;;;;;;6372188;22;45221;-75
2023/05/28 13:28:48;;;;;;;;;5.50;4.25;;;;;;;;6372336;22;45253;-76
2023/05/28 13:31:13;;;;;;;;;6.25;6.25;;;;;;;;6371671;22;45252;-76
2023/05/28 13:33:38;;;;;;;;;6.50;6.50;;;;;;;;6372017;22;45229;-77
2023/05/28 13:36:03;;;;;;;;;6.00;6.00;;;;;;;;6371839;22;45270;-77
2023/05/28 13:38:29;;;;;;;;;5.25;5.25;;;;;;;;6343265;22;46923;-77
2023/05/28 13:40:55;;;;;;;;;6.00;5.00;;;;;;;;6372927;22;46185;-77
2023/05/28 13:43:20;;;;;;;;;4.40;4.40;;;;;;;;6372375;22;45227;-76
2023/05/28 13:45:46;;;;;;;;;8.25;6.50;;;;;;;;6372595;22;45862;-76
2023/05/28 13:48:12;;;;;;;;;6.80;6.00;;;;;;;;6375725;22;45319;-77
2023/05/28 13:50:37;;;;;;;;;5.75;5.75;;;;;;;;6371140;22;45542;-76
2023/05/28 13:53:02;;;;;;;;;5.25;5.25;;;;;;;;6371903;22;45232;-76
2023/05/28 13:55:28;;;;;;;;;7.00;5.60;;;;;;;;6370541;22;45194;-76
2023/05/28 13:57:54;;;;;;;;;6.25;6.25;;;;;;;;6372196;22;45095;-76
2023/05/28 14:00:20;;;;;;;;;5.00;5.00;;;;;;;;6371412;22;45270;-76
2023/05/28 14:02:46;;;;;;;;;10.80;6.80;;;;;;;;6370226;22;45215;-76
2023/05/28 14:05:11;;;;;;;;;8.50;7.00;;;;;;;;6370859;22;45268;-78
2023/05/28 14:07:36;;;;;;;;;6.00;6.00;;;;;;;;6343903;22;45755;-77
2023/05/28 14:10:02;;;;;;;;;8.75;8.75;;;;;;;;6370525;22;47596;-76
2023/05/28 14:12:27;;;;;;;;;6.75;6.75;;;;;;;;6371535;22;45227;-76
2023/05/28 14:14:52;;;;;;;;;6.00;6.00;;;;;;;;6370979;22;45303;-76
2023/05/28 14:17:17;;;;;;;;;6.50;5.50;;;;;;;;6371603;22;45195;-76